createdAt,value
2022-08-29T00:00:43.014Z,11.70
2022-08-29T00:03:32.136Z,10.90
2022-08-29T00:06:22.050Z,13.20
2022-08-29T00:09:10.611Z,11.63
2022-08-29T00:11:59.699Z,11.63
2022-08-29T00:14:48.308Z,11.07
2022-08-29T00:17:36.828Z,10.33
2022-08-29T00:20:30.219Z,10.70
2022-08-29T00:23:24.452Z,11.30
2022-08-29T00:26:13.355Z,11.37
2022-08-29T00:29:02.127Z,10.90
2022-08-29T00:31:50.688Z,12.00
2022-08-29T00:34:39.233Z,11.77
2022-08-29T00:37:27.866Z,11.30
2022-08-29T00:40:21.637Z,10.30
2022-08-29T00:43:10.948Z,11.60
2022-08-29T00:46:06.507Z,11.83
2022-08-29T00:48:58.383Z,10.50
2022-08-29T00:51:47.763Z,10.77
2022-08-29T00:54:38.150Z,11.27
2022-08-29T00:57:31.563Z,11.57
2022-08-29T01:00:20.572Z,11.47
2022-08-29T01:03:09.278Z,11.80
2022-08-29T01:05:58.283Z,11.30
2022-08-29T01:08:47.171Z,11.53
2022-08-29T01:11:53.646Z,10.67
2022-08-29T01:14:47.354Z,11.43
2022-08-29T01:17:39.131Z,10.73
2022-08-29T01:20:35.120Z,11.57
2022-08-29T01:23:28.740Z,11.43
2022-08-29T01:26:18.681Z,11.17
2022-08-29T01:29:07.275Z,12.23
2022-08-29T01:31:57.988Z,10.33
2022-08-29T01:34:46.890Z,11.30
2022-08-29T01:37:38.150Z,10.70
2022-08-29T01:40:30.416Z,9.87
2022-08-29T01:43:20.814Z,10.80
2022-08-29T01:46:10.432Z,10.73
2022-08-29T01:49:01.038Z,9.93
2022-08-29T01:51:49.609Z,10.17
2022-08-29T01:54:38.720Z,11.33
2022-08-29T01:57:27.476Z,10.40
2022-08-29T02:00:18.658Z,10.40
2022-08-29T02:03:07.253Z,10.63
2022-08-29T02:05:59.183Z,10.80
2022-08-29T02:08:47.751Z,11.60
2022-08-29T02:11:36.463Z,10.07
2022-08-29T02:14:25.267Z,10.30
2022-08-29T02:17:15.154Z,10.50
2022-08-29T02:20:06.480Z,9.60
2022-08-29T02:22:56.123Z,10.10
2022-08-29T02:25:47.452Z,10.83
2022-08-29T02:28:37.331Z,8.97
2022-08-29T02:31:26.369Z,10.70
2022-08-29T02:34:16.596Z,11.17
2022-08-29T02:37:07.443Z,10.00
2022-08-29T02:39:56.144Z,9.73
2022-08-29T02:42:44.740Z,10.30
2022-08-29T02:45:33.867Z,9.33
2022-08-29T02:48:22.624Z,10.03
2022-08-29T02:51:13.737Z,8.87
2022-08-29T02:54:02.763Z,9.00
2022-08-29T02:56:51.330Z,10.43
2022-08-29T02:59:39.811Z,9.93
2022-08-29T03:02:28.754Z,8.90
2022-08-29T03:05:18.965Z,9.10
2022-08-29T03:08:10.718Z,9.30
2022-08-29T03:10:59.296Z,10.10
2022-08-29T03:13:47.899Z,8.60
2022-08-29T03:16:36.557Z,9.63
2022-08-29T03:19:26.052Z,8.80
2022-08-29T03:22:15.222Z,9.20
2022-08-29T03:25:06.560Z,10.47
2022-08-29T03:27:55.154Z,9.27
2022-08-29T03:30:43.708Z,10.07
2022-08-29T03:33:32.262Z,9.07
2022-08-29T03:36:20.855Z,9.00
2022-08-29T03:39:09.483Z,9.30
2022-08-29T03:41:59.325Z,8.57
2022-08-29T03:44:48.514Z,9.10
2022-08-29T03:47:37.012Z,9.60
2022-08-29T03:50:25.532Z,8.50
2022-08-29T03:53:14.184Z,9.03
2022-08-29T03:56:04.394Z,10.30
2022-08-29T03:58:54.891Z,9.60
2022-08-29T04:01:43.768Z,9.93
2022-08-29T04:04:49.894Z,8.30
2022-08-29T04:07:43.945Z,9.17
2022-08-29T04:10:34.993Z,8.80
2022-08-29T04:13:24.348Z,8.67
2022-08-29T04:16:16.543Z,9.20
2022-08-29T04:19:05.274Z,8.47
2022-08-29T04:21:57.641Z,8.13
2022-08-29T04:24:46.272Z,8.87
2022-08-29T04:27:36.684Z,9.93
2022-08-29T04:30:28.088Z,11.40
2022-08-29T04:33:22.526Z,10.10
2022-08-29T04:36:14.919Z,9.37
2022-08-29T04:39:04.651Z,9.43
2022-08-29T04:41:53.179Z,9.77
2022-08-29T04:44:41.733Z,8.30
2022-08-29T04:47:30.974Z,8.70
2022-08-29T04:50:23.456Z,10.13
2022-08-29T04:53:12.006Z,9.00
2022-08-29T04:56:02.451Z,10.00
2022-08-29T04:58:52.004Z,8.13
2022-08-29T05:01:42.435Z,9.07
2022-08-29T05:04:31.117Z,9.10
2022-08-29T05:07:21.869Z,8.20
2022-08-29T05:10:13.495Z,9.23
2022-08-29T05:13:02.052Z,8.33
2022-08-29T05:15:51.262Z,9.37
2022-08-29T05:18:40.133Z,8.93
2022-08-29T05:21:35.248Z,8.87
2022-08-29T05:24:25.971Z,9.67
2022-08-29T05:27:17.431Z,8.43
2022-08-29T05:30:07.225Z,9.03
2022-08-29T05:32:55.802Z,7.97
2022-08-29T05:35:45.244Z,8.67
2022-08-29T05:38:33.760Z,9.20
2022-08-29T05:41:23.638Z,8.10
2022-08-29T05:44:12.141Z,8.73
2022-08-29T05:47:01.111Z,8.60
2022-08-29T05:49:50.309Z,8.80
2022-08-29T05:52:38.899Z,9.10
2022-08-29T05:55:27.444Z,9.50
2022-08-29T05:58:18.301Z,9.17
2022-08-29T06:01:07.055Z,8.20
2022-08-29T06:03:56.184Z,7.63
2022-08-29T06:06:44.848Z,7.40
2022-08-29T06:09:33.468Z,7.87
2022-08-29T06:12:22.094Z,7.57
2022-08-29T06:15:14.437Z,7.60
2022-08-29T06:18:03.172Z,8.67
2022-08-29T06:20:51.751Z,7.13
2022-08-29T06:23:42.093Z,6.70
2022-08-29T06:26:31.436Z,6.60
2022-08-29T06:29:19.999Z,6.30
2022-08-29T06:32:09.888Z,5.73
2022-08-29T06:34:58.584Z,5.27
2022-08-29T06:37:47.115Z,5.00
2022-08-29T06:40:35.713Z,5.00
2022-08-29T06:43:24.329Z,4.73
2022-08-29T06:46:21.393Z,4.70
2022-08-29T06:49:13.340Z,5.63
2022-08-29T06:52:02.049Z,4.03
2022-08-29T06:54:50.566Z,3.57
2022-08-29T06:57:45.317Z,3.37
2022-08-29T07:00:33.840Z,3.43
2022-08-29T07:03:23.000Z,3.50
2022-08-29T07:06:13.300Z,3.10
2022-08-29T07:09:01.848Z,3.33
2022-08-29T07:11:50.626Z,3.10
2022-08-29T07:14:39.180Z,3.10
2022-08-29T07:17:27.692Z,2.57
2022-08-29T07:20:16.623Z,3.20
2022-08-29T07:23:06.587Z,3.53
2022-08-29T07:25:57.287Z,3.70
2022-08-29T07:28:47.621Z,3.20
2022-08-29T07:31:36.537Z,3.70
2022-08-29T07:34:25.068Z,2.90
2022-08-29T07:37:13.681Z,3.13
2022-08-29T07:40:04.781Z,3.00
2022-08-29T07:42:53.253Z,2.90
2022-08-29T07:45:41.871Z,3.37
2022-08-29T07:48:30.419Z,2.93
2022-08-29T07:51:21.725Z,3.90
2022-08-29T07:54:11.113Z,2.83
2022-08-29T07:57:01.044Z,3.17
2022-08-29T07:59:50.109Z,3.60
2022-08-29T08:02:38.705Z,3.33
2022-08-29T08:05:28.074Z,3.17
2022-08-29T08:08:16.669Z,3.30
2022-08-29T08:11:05.685Z,3.67
2022-08-29T08:13:57.432Z,3.27
2022-08-29T08:16:46.222Z,3.37
2022-08-29T08:19:34.879Z,4.00
2022-08-29T08:22:23.430Z,3.10
2022-08-29T08:25:12.008Z,2.87
2022-08-29T08:28:00.565Z,3.40
2022-08-29T08:30:50.646Z,3.20
2022-08-29T08:33:40.022Z,3.53
2022-08-29T08:36:30.656Z,2.87
2022-08-29T08:39:19.917Z,3.73
2022-08-29T08:42:14.256Z,3.20
2022-08-29T08:45:08.161Z,2.70
2022-08-29T08:48:01.156Z,4.03
2022-08-29T08:50:54.885Z,3.43
2022-08-29T08:53:45.301Z,3.50
2022-08-29T08:56:36.833Z,4.17
2022-08-29T08:59:30.085Z,3.03
2022-08-29T09:02:35.386Z,3.40
2022-08-29T09:05:39.456Z,4.37
2022-08-29T09:08:34.421Z,4.47
2022-08-29T09:11:29.859Z,4.20
2022-08-29T09:14:33.604Z,3.37
2022-08-29T09:17:26.179Z,4.00
2022-08-29T09:20:18.521Z,4.03
2022-08-29T09:23:14.555Z,3.97
2022-08-29T09:26:03.264Z,3.77
2022-08-29T09:28:52.355Z,3.43
2022-08-29T09:31:41.531Z,4.30
2022-08-29T09:34:56.984Z,4.23
2022-08-29T09:37:44.658Z,4.20
2022-08-29T09:40:50.942Z,4.53
2022-08-29T09:43:48.264Z,4.30
2022-08-29T09:46:38.968Z,4.40
2022-08-29T09:49:27.573Z,4.47
2022-08-29T09:52:18.128Z,4.67
2022-08-29T09:55:22.643Z,4.40
2022-08-29T09:58:31.039Z,4.23
2022-08-29T10:01:23.973Z,4.47
2022-08-29T10:04:37.113Z,4.30
2022-08-29T10:07:27.988Z,4.83
2022-08-29T10:10:19.116Z,4.73
2022-08-29T10:13:11.791Z,5.13
2022-08-29T10:16:09.110Z,4.87
2022-08-29T10:19:00.476Z,4.63
2022-08-29T10:21:56.781Z,5.10
2022-08-29T10:24:56.000Z,4.97
2022-08-29T10:27:48.602Z,5.07
2022-08-29T10:30:43.252Z,4.60
2022-08-29T10:33:49.039Z,5.63
2022-08-29T10:36:39.150Z,4.70
2022-08-29T10:39:36.795Z,4.50
2022-08-29T10:42:26.967Z,13.77
2022-08-29T10:45:18.260Z,4.70
2022-08-29T10:48:11.387Z,4.57
2022-08-29T10:51:13.676Z,4.77
2022-08-29T10:54:12.968Z,4.57
2022-08-29T10:57:02.776Z,4.20
2022-08-29T10:59:56.879Z,4.40
2022-08-29T11:02:48.976Z,4.50
2022-08-29T11:05:43.861Z,4.23
2022-08-29T11:08:36.426Z,4.50
2022-08-29T11:11:25.712Z,4.50
2022-08-29T11:14:23.118Z,4.90
2022-08-29T11:17:14.824Z,4.37
2022-08-29T11:20:09.547Z,4.10
2022-08-29T11:23:01.438Z,5.43
2022-08-29T11:25:51.739Z,4.30
2022-08-29T11:31:44.291Z,5.03
2022-08-29T11:34:43.221Z,4.90
2022-08-29T11:37:49.285Z,4.47
2022-08-29T11:40:48.447Z,4.10
2022-08-29T11:43:42.026Z,3.53
2022-08-29T11:46:37.401Z,4.30
2022-08-29T11:49:33.917Z,4.10
2022-08-29T11:52:26.362Z,4.30
2022-08-29T11:55:25.420Z,4.20
2022-08-29T11:58:46.600Z,4.70
2022-08-29T12:02:00.607Z,5.00
2022-08-29T12:04:54.956Z,4.80
2022-08-29T12:07:48.183Z,4.70
2022-08-29T12:10:53.083Z,5.30
2022-08-29T12:14:04.806Z,4.17
2022-08-29T12:16:53.756Z,4.83
2022-08-29T12:19:47.631Z,3.83
2022-08-29T12:23:00.521Z,3.67
2022-08-29T12:26:09.618Z,5.53
2022-08-29T12:29:10.366Z,4.63
2022-08-29T12:32:23.383Z,5.37
2022-08-29T12:35:24.056Z,4.43
2022-08-29T12:38:24.386Z,4.10
2022-08-29T12:41:30.512Z,5.17
2022-08-29T12:44:27.293Z,4.93
2022-08-29T12:47:22.172Z,4.50
2022-08-29T12:50:17.615Z,5.63
2022-08-29T12:53:07.675Z,5.20
2022-08-29T12:55:58.427Z,4.43
2022-08-29T12:58:55.839Z,3.80
2022-08-29T13:01:48.730Z,4.23
2022-08-29T13:04:38.930Z,4.10
2022-08-29T13:07:29.024Z,5.10
2022-08-29T13:10:20.063Z,4.23
2022-08-29T13:13:12.521Z,3.67
2022-08-29T13:16:03.558Z,4.30
2022-08-29T13:19:09.994Z,4.20
2022-08-29T13:22:04.116Z,4.67
2022-08-29T13:25:04.040Z,4.77
2022-08-29T13:28:01.117Z,4.53
2022-08-29T13:31:31.255Z,5.47
2022-08-29T13:34:22.518Z,4.33
2022-08-29T13:37:30.208Z,4.77
2022-08-29T13:40:36.686Z,4.23
2022-08-29T13:43:32.314Z,5.03
2022-08-29T13:46:27.619Z,4.80
2022-08-29T13:49:23.080Z,4.13
2022-08-29T13:52:12.695Z,4.63
2022-08-29T13:55:02.511Z,4.83
2022-08-29T13:57:54.116Z,4.27
2022-08-29T14:00:43.727Z,4.10
2022-08-29T14:03:33.033Z,4.50
2022-08-29T14:06:25.513Z,5.53
2022-08-29T14:09:18.052Z,5.63
2022-08-29T14:12:07.267Z,4.40
2022-08-29T14:14:55.862Z,4.70
2022-08-29T14:17:45.697Z,4.50
2022-08-29T14:20:34.538Z,4.10
2022-08-29T14:23:24.508Z,4.87
2022-08-29T14:26:14.105Z,4.17
2022-08-29T14:29:03.635Z,4.60
2022-08-29T14:31:53.881Z,4.20
2022-08-29T14:34:50.944Z,4.57
2022-08-29T14:37:40.452Z,4.67
2022-08-29T14:40:32.276Z,4.00
2022-08-29T14:43:20.984Z,4.27
2022-08-29T14:46:09.662Z,4.60
2022-08-29T14:48:58.285Z,4.40
2022-08-29T14:51:47.025Z,4.10
2022-08-29T14:54:35.696Z,4.40
2022-08-29T14:57:25.657Z,4.40
2022-08-29T15:00:17.898Z,4.40
2022-08-29T15:03:07.986Z,4.33
2022-08-29T15:05:56.656Z,4.93
2022-08-29T15:08:45.793Z,4.60
2022-08-29T15:11:34.429Z,4.83
2022-08-29T15:14:24.621Z,4.40
2022-08-29T15:17:13.560Z,4.27
2022-08-29T15:23:12.218Z,3.97
2022-08-29T15:26:02.697Z,4.20
2022-08-29T15:28:51.539Z,5.53
2022-08-29T15:31:41.504Z,5.27
2022-08-29T15:34:31.307Z,4.07
2022-08-29T15:37:20.041Z,4.37
2022-08-29T15:40:13.118Z,4.30
2022-08-29T15:43:02.626Z,4.40
2022-08-29T15:45:51.240Z,4.80
2022-08-29T15:48:41.548Z,4.87
2022-08-29T15:51:30.188Z,4.53
2022-08-29T15:54:19.289Z,4.60
2022-08-29T15:57:08.087Z,4.30
2022-08-29T15:59:58.892Z,4.13
2022-08-29T16:02:47.817Z,4.17
2022-08-29T16:05:40.219Z,3.90
2022-08-29T16:08:29.750Z,4.00
2022-08-29T16:11:18.473Z,4.27
2022-08-29T16:14:41.053Z,4.20
2022-08-29T16:17:16.007Z,5.40
2022-08-29T16:20:05.935Z,5.40
2022-08-29T16:22:56.374Z,3.77
2022-08-29T16:25:44.938Z,4.33
2022-08-29T16:28:33.518Z,4.57
2022-08-29T16:31:22.265Z,4.87
2022-08-29T16:34:10.934Z,6.10
2022-08-29T16:37:00.692Z,4.50
2022-08-29T16:39:50.647Z,5.60
2022-08-29T16:42:40.234Z,4.83
2022-08-29T16:45:28.875Z,4.60
2022-08-29T16:48:18.032Z,4.27
2022-08-29T16:51:07.200Z,3.90
2022-08-29T16:53:56.530Z,5.30
2022-08-29T16:56:46.691Z,4.77
2022-08-29T16:59:37.246Z,5.13
2022-08-29T17:02:25.996Z,3.90
2022-08-29T17:05:14.600Z,3.87
2022-08-29T17:08:02.291Z,4.17
2022-08-29T17:10:49.874Z,4.43
2022-08-29T17:13:40.899Z,4.90
2022-08-29T17:16:29.670Z,5.97
2022-08-29T17:19:19.251Z,7.10
2022-08-29T17:22:10.140Z,6.70
2022-08-29T17:25:01.956Z,4.73
2022-08-29T17:28:14.087Z,4.33
2022-08-29T17:31:01.056Z,4.30
2022-08-29T17:33:49.777Z,14.87
2022-08-29T17:36:39.783Z,7.40
2022-08-29T17:39:28.358Z,11.20
2022-08-29T17:42:18.670Z,5.37
2022-08-29T17:45:08.787Z,3.83
2022-08-29T17:47:58.878Z,6.37
2022-08-29T17:50:47.591Z,12.60
2022-08-29T17:53:36.297Z,7.43
2022-08-29T17:56:29.295Z,7.00
2022-08-29T17:59:18.988Z,5.23
2022-08-29T18:02:08.391Z,5.97
2022-08-29T18:04:58.490Z,4.60
2022-08-29T18:07:47.034Z,4.77
2022-08-29T18:10:37.214Z,5.00
2022-08-29T18:13:25.764Z,4.17
2022-08-29T18:16:14.936Z,4.13
2022-08-29T18:19:03.737Z,5.20
2022-08-29T18:21:55.249Z,4.47
2022-08-29T18:24:43.812Z,4.50
2022-08-29T18:27:32.468Z,4.90
2022-08-29T18:30:21.408Z,5.83
2022-08-29T18:33:09.978Z,14.30
2022-08-29T18:35:58.579Z,9.10
2022-08-29T18:38:49.395Z,8.07
2022-08-29T18:41:38.121Z,6.50
2022-08-29T18:44:26.716Z,6.03
2022-08-29T18:47:15.257Z,8.30
2022-08-29T18:50:24.850Z,11.37
2022-08-29T18:53:15.733Z,5.90
2022-08-29T18:56:06.058Z,4.83
2022-08-29T18:58:58.743Z,5.77
2022-08-29T19:01:47.759Z,5.23
2022-08-29T19:04:36.337Z,4.90
2022-08-29T19:07:24.874Z,5.60
2022-08-29T19:10:13.487Z,6.10
2022-08-29T19:13:03.931Z,5.53
2022-08-29T19:15:52.623Z,5.60
2022-08-29T19:18:41.524Z,5.73
2022-08-29T19:21:29.149Z,5.77
2022-08-29T19:24:17.693Z,5.67
2022-08-29T19:27:14.253Z,5.70
2022-08-29T19:30:14.095Z,4.80
2022-08-29T19:33:02.693Z,5.37
2022-08-29T19:35:53.568Z,5.83
2022-08-29T19:38:42.563Z,5.40
2022-08-29T19:41:31.138Z,5.03
2022-08-29T19:44:19.759Z,5.13
2022-08-29T19:47:09.684Z,5.53
2022-08-29T19:49:58.292Z,5.00
2022-08-29T19:52:47.084Z,5.00
2022-08-29T19:55:36.242Z,5.33
2022-08-29T19:58:31.154Z,5.20
2022-08-29T20:01:20.942Z,5.90
2022-08-29T20:04:10.994Z,5.70
2022-08-29T20:07:01.410Z,5.47
2022-08-29T20:09:50.749Z,5.83
2022-08-29T20:12:39.269Z,5.90
2022-08-29T20:15:30.524Z,5.70
2022-08-29T20:18:19.808Z,4.77
2022-08-29T20:21:10.511Z,5.90
2022-08-29T20:23:59.548Z,5.00
2022-08-29T20:26:50.141Z,5.83
2022-08-29T20:29:38.708Z,5.20
2022-08-29T20:32:27.277Z,6.47
2022-08-29T20:35:36.578Z,5.83
2022-08-29T20:38:25.616Z,5.80
2022-08-29T20:41:14.193Z,5.77
2022-08-29T20:44:10.883Z,6.00
2022-08-29T20:46:59.520Z,6.43
2022-08-29T20:49:49.450Z,6.10
2022-08-29T20:52:38.610Z,6.00
2022-08-29T20:55:28.536Z,5.03
2022-08-29T20:58:17.081Z,6.60
2022-08-29T21:01:07.906Z,5.63
2022-08-29T21:04:14.573Z,5.70
2022-08-29T21:07:12.177Z,5.70
2022-08-29T21:10:02.086Z,5.63
2022-08-29T21:12:52.252Z,5.13
2022-08-29T21:15:42.222Z,6.23
2022-08-29T21:18:31.087Z,5.23
2022-08-29T21:21:22.988Z,5.93
2022-08-29T21:24:13.446Z,5.90
2022-08-29T21:27:02.051Z,5.80
2022-08-29T21:29:51.983Z,6.30
2022-08-29T21:32:40.554Z,5.53
2022-08-29T21:35:29.385Z,5.97
2022-08-29T21:38:18.275Z,5.80
2022-08-29T21:41:09.744Z,5.90
2022-08-29T21:43:58.774Z,6.30
2022-08-29T21:46:48.715Z,5.93
2022-08-29T21:49:37.508Z,6.53
2022-08-29T21:52:26.118Z,6.13
2022-08-29T21:55:14.900Z,6.33
2022-08-29T21:58:03.701Z,6.03
2022-08-29T22:00:52.612Z,6.10
2022-08-29T22:03:42.529Z,5.33
2022-08-29T22:06:33.216Z,6.23
2022-08-29T22:09:21.892Z,6.83
2022-08-29T22:12:10.460Z,5.70
2022-08-29T22:15:16.334Z,5.90
2022-08-29T22:18:06.065Z,6.20
2022-08-29T22:20:56.006Z,6.80
2022-08-29T22:23:45.541Z,6.70
2022-08-29T22:26:34.614Z,6.37
2022-08-29T22:29:23.210Z,6.10
2022-08-29T22:32:11.774Z,6.23
2022-08-29T22:35:00.691Z,6.50
2022-08-29T22:37:54.224Z,7.17
2022-08-29T22:40:44.310Z,6.23
2022-08-29T22:43:32.903Z,6.53
2022-08-29T22:46:24.115Z,6.90
2022-08-29T22:49:12.715Z,6.70
2022-08-29T22:52:01.380Z,6.90
2022-08-29T22:54:51.241Z,6.23
2022-08-29T22:57:39.961Z,6.47
2022-08-29T23:00:28.482Z,6.00
2022-08-29T23:03:17.423Z,6.57
2022-08-29T23:06:06.254Z,7.70
2022-08-29T23:08:55.458Z,5.87
2022-08-29T23:11:45.404Z,6.10
2022-08-29T23:14:35.645Z,5.90
2022-08-29T23:17:24.387Z,5.83
2022-08-29T23:20:14.510Z,5.90
2022-08-29T23:23:03.073Z,5.67
2022-08-29T23:25:57.229Z,6.57
2022-08-29T23:28:47.504Z,6.20
2022-08-29T23:31:36.079Z,6.20
2022-08-29T23:34:24.664Z,6.63
2022-08-29T23:37:13.347Z,6.67
2022-08-29T23:40:02.542Z,5.93
2022-08-29T23:42:51.129Z,6.30
2022-08-29T23:45:41.035Z,5.67
2022-08-29T23:48:30.240Z,5.83
2022-08-29T23:51:19.267Z,5.63
2022-08-29T23:54:08.218Z,6.30
2022-08-29T23:56:56.997Z,6.23
